Time;durP1;ratioP1;P1;durP2;ratioP2;P2;SDS_P1;SDS_P2;PMS_P1;PMS_P2;Temp;Humidity;BMP_temperature;BMP_pressure;BME280_temperature;BME280_humidity;BME280_pressure;Samples;Min_cycle;Max_cycle;Signal;HPM_P1;HPM_P2
2022/01/05 00:01:26;;;;;;;41.22;31.63;;;-6.50;87.40;-7.20;97164.00;;;;5018864;28;83008;-61
2022/01/05 00:03:53;;;;;;;41.33;32.65;;;-6.50;86.50;-7.30;97177.00;;;;5021888;28;83067;-60
2022/01/05 00:06:19;;;;;;;41.17;31.77;;;-6.50;86.60;-7.30;97177.00;;;;5021473;28;82521;-60
2022/01/05 00:08:45;;;;;;;44.13;33.22;;;-6.50;86.90;-7.20;97183.00;;;;5021063;28;83336;-60
2022/01/05 00:11:11;;;;;;;40.95;32.22;;;-6.50;87.10;-7.20;97168.00;;;;5022547;28;82920;-60
2022/01/05 00:13:37;;;;;;;39.72;31.92;;;-6.50;87.00;-7.20;97193.00;;;;5021216;28;83074;-61
2022/01/05 00:16:04;;;;;;;40.20;32.33;;;-6.40;87.10;-7.20;97173.00;;;;5020630;28;85008;-60
2022/01/05 00:18:31;;;;;;;38.63;32.42;;;-6.40;86.80;-7.20;97158.00;;;;5021254;28;82665;-60
2022/01/05 00:20:59;;;;;;;42.47;31.83;;;-6.40;86.70;-7.20;97154.00;;;;5021736;28;83888;-61
2022/01/05 00:23:26;;;;;;;37.28;31.48;;;-6.40;86.60;-7.20;97161.00;;;;5022282;28;82658;-60
2022/01/05 00:25:52;;;;;;;37.10;31.95;;;-6.40;86.70;-7.20;97152.00;;;;5020539;28;83080;-60
2022/01/05 00:28:18;;;;;;;40.47;32.17;;;-6.40;86.70;-7.20;97161.00;;;;5020344;28;83158;-60
2022/01/05 00:30:44;;;;;;;43.00;33.42;;;-6.40;86.90;-7.20;97153.00;;;;5020097;28;83051;-61
2022/01/05 00:33:12;;;;;;;41.45;32.55;;;-6.40;87.20;-7.10;97160.00;;;;5020981;28;82716;-61
2022/01/05 00:35:38;;;;;;;40.40;31.60;;;-6.40;87.10;-7.10;97147.00;;;;5020103;28;82888;-60
2022/01/05 00:38:04;;;;;;;41.42;32.83;;;-6.30;86.70;-7.10;97144.00;;;;5020627;28;84060;-60
2022/01/05 00:40:30;;;;;;;38.00;31.63;;;-6.30;86.70;-7.10;97146.00;;;;5020907;28;83329;-60
2022/01/05 00:42:56;;;;;;;39.28;32.03;;;-6.40;87.20;-7.10;97151.00;;;;5020739;28;83039;-60
2022/01/05 00:45:23;;;;;;;40.17;32.53;;;-6.30;87.20;-7.10;97154.00;;;;5022784;28;83236;-60
2022/01/05 00:47:49;;;;;;;39.75;32.83;;;-6.30;87.10;-7.10;97147.00;;;;5024719;28;83306;-59
2022/01/05 00:50:15;;;;;;;38.92;32.95;;;-6.40;87.00;-7.10;97153.00;;;;5024791;28;83123;-62
2022/01/05 00:52:41;;;;;;;36.75;30.42;;;-6.30;87.20;-7.10;97154.00;;;;5024871;28;82652;-61
2022/01/05 00:55:08;;;;;;;37.53;30.88;;;-6.30;87.00;-7.10;97146.00;;;;5024198;28;83338;-60
2022/01/05 00:57:34;;;;;;;41.13;32.05;;;-6.30;88.00;-7.10;97137.00;;;;5024684;28;83464;-62
2022/01/05 01:00:00;;;;;;;38.33;32.10;;;-6.30;87.20;-7.10;97143.00;;;;5023871;28;83756;-58
2022/01/05 01:02:27;;;;;;;39.92;32.15;;;-6.30;87.10;-7.00;97131.00;;;;5024135;28;83021;-61
2022/01/05 01:04:53;;;;;;;38.30;31.15;;;-6.20;87.30;-7.00;97124.00;;;;5023015;28;83266;-60
2022/01/05 01:07:19;;;;;;;39.25;31.80;;;-6.30;87.20;-7.00;97130.00;;;;5022595;28;83371;-61
2022/01/05 01:09:45;;;;;;;41.97;32.13;;;-6.20;88.10;-7.00;97128.00;;;;5023357;28;83044;-61
2022/01/05 01:12:11;;;;;;;37.40;30.27;;;-6.30;87.20;-7.00;97112.00;;;;5021517;28;82645;-61
2022/01/05 01:14:38;;;;;;;37.58;30.52;;;-6.20;87.30;-7.00;97122.00;;;;5022929;28;83228;-61
2022/01/05 01:17:04;;;;;;;35.92;30.63;;;-6.20;87.30;-7.00;97120.00;;;;5024278;28;83317;-62
2022/01/05 01:19:30;;;;;;;38.03;29.55;;;-6.20;87.30;-6.90;97125.00;;;;5022897;28;82887;-62
2022/01/05 01:21:58;;;;;;;36.45;29.25;;;-6.20;87.50;-6.90;97115.00;;;;5024077;28;82581;-62
2022/01/05 01:24:25;;;;;;;36.58;30.55;;;-6.20;87.60;-6.90;97115.00;;;;5022274;28;83750;-63
2022/01/05 01:26:51;;;;;;;38.95;30.67;;;-6.20;87.80;-6.90;97108.00;;;;5023781;28;83439;-62
2022/01/05 01:29:17;;;;;;;38.30;30.77;;;-6.10;87.90;-6.90;97114.00;;;;5024012;28;82854;-62
2022/01/05 01:31:43;;;;;;;39.38;31.38;;;-6.10;87.90;-6.90;97106.00;;;;5023842;28;82578;-63
2022/01/05 01:34:09;;;;;;;39.10;32.10;;;-6.10;87.90;-6.90;97096.00;;;;5023553;28;82592;-64
2022/01/05 01:36:35;;;;;;;37.92;31.45;;;-6.10;87.90;-6.90;97097.00;;;;5023365;28;83322;-62
2022/01/05 01:39:02;;;;;;;35.75;29.35;;;-6.10;88.30;-6.90;97091.00;;;;5022788;28;85333;-63
2022/01/05 01:41:28;;;;;;;38.00;31.02;;;-6.10;88.20;-6.90;97081.00;;;;5023629;28;82918;-63
2022/01/05 01:43:54;;;;;;;37.58;31.02;;;-6.10;88.20;-6.80;97096.00;;;;5024104;28;82728;-63
2022/01/05 01:46:21;;;;;;;37.85;30.92;;;-6.10;88.10;-6.90;97094.00;;;;5023805;28;83327;-63
2022/01/05 01:48:47;;;;;;;38.60;31.02;;;-6.10;88.00;-6.80;97085.00;;;;5023167;28;82995;-63
2022/01/05 01:51:14;;;;;;;38.83;31.60;;;-6.10;88.00;-6.80;97092.00;;;;5023212;28;82943;-63
2022/01/05 01:53:41;;;;;;;36.53;30.25;;;-6.10;87.90;-6.80;97093.00;;;;5023065;28;83046;-63
2022/01/05 01:56:08;;;;;;;39.80;32.33;;;-6.10;87.90;-6.80;97092.00;;;;5023459;28;83891;-62
2022/01/05 01:58:35;;;;;;;37.88;29.35;;;-6.10;87.80;-6.80;97090.00;;;;5023900;28;83156;-62
2022/01/05 02:01:03;;;;;;;36.53;30.90;;;-6.10;87.90;-6.80;97075.00;;;;5023190;28;83196;-62
2022/01/05 02:03:29;;;;;;;38.97;30.17;;;-6.10;88.00;-6.80;97075.00;;;;5004033;28;82581;-62
2022/01/05 02:05:55;;;;;;;38.67;30.45;;;-6.10;88.00;-6.80;97069.00;;;;5015181;28;83407;-62
2022/01/05 02:08:21;;;;;;;40.92;30.27;;;-6.10;88.10;-6.80;97064.00;;;;5023077;28;82971;-59
2022/01/05 02:10:49;;;;;;;38.13;30.15;;;-6.10;88.20;-6.80;97066.00;;;;5022664;28;83016;-60
2022/01/05 02:13:16;;;;;;;41.05;30.67;;;-6.10;88.30;-6.80;97068.00;;;;5019724;28;82662;-60
2022/01/05 02:15:43;;;;;;;37.08;30.50;;;-6.10;88.40;-6.80;97077.00;;;;5022718;28;83436;-60
2022/01/05 02:18:57;;;;;;;37.72;29.13;;;-6.10;88.40;-6.80;97060.00;;;;5022264;28;83113;-60
2022/01/05 02:21:05;;;;;;;41.13;30.42;;;-6.10;88.50;-6.80;97048.00;;;;5013977;28;82979;-60
2022/01/05 02:23:34;;;;;;;37.63;30.35;;;-6.10;88.50;-6.80;97057.00;;;;5002767;28;83790;-60
2022/01/05 02:26:01;;;;;;;38.53;30.55;;;-6.00;88.70;-6.80;97058.00;;;;5023016;28;83277;-60
2022/01/05 02:28:28;;;;;;;40.47;30.38;;;-6.00;88.60;-6.70;97053.00;;;;5021741;28;83131;-60
2022/01/05 02:30:54;;;;;;;41.85;30.80;;;-6.00;88.60;-6.70;97054.00;;;;5022363;28;82614;-60
2022/01/05 02:33:21;;;;;;;37.80;29.58;;;-6.00;88.50;-6.80;97047.00;;;;5022389;28;82739;-60
2022/01/05 02:35:47;;;;;;;41.17;31.20;;;-6.00;88.70;-6.80;97043.00;;;;5022066;28;83639;-60
2022/01/05 02:38:22;;;;;;;40.47;29.33;;;-6.00;88.60;-6.80;97039.00;;;;5021483;28;83394;-59
2022/01/05 02:40:50;;;;;;;37.97;30.10;;;-6.00;88.70;-6.70;97038.00;;;;5022388;28;82524;-60
2022/01/05 02:43:16;;;;;;;39.60;30.83;;;-6.00;88.70;-6.70;97035.00;;;;5022593;28;83550;-60
2022/01/05 02:45:42;;;;;;;39.30;30.80;;;-6.00;88.60;-6.70;97040.00;;;;5022440;28;83377;-59
2022/01/05 02:48:09;;;;;;;43.13;31.75;;;-6.00;88.80;-6.70;97037.00;;;;5021913;28;83015;-58
2022/01/05 02:50:36;;;;;;;39.78;30.35;;;-6.00;88.60;-6.70;97027.00;;;;5004584;28;83327;-62
2022/01/05 02:53:02;;;;;;;39.88;31.48;;;-6.00;88.60;-6.70;97029.00;;;;5022299;28;82859;-59
2022/01/05 02:55:28;;;;;;;42.00;31.33;;;-6.00;88.80;-6.70;97023.00;;;;5020940;28;83449;-58
2022/01/05 02:57:54;;;;;;;40.63;31.55;;;-6.00;88.80;-6.70;97023.00;;;;5022229;28;83109;-59
2022/01/05 03:00:21;;;;;;;42.92;31.13;;;-5.90;88.90;-6.70;97018.00;;;;5019303;28;83016;-59
2022/01/05 03:02:47;;;;;;;44.20;32.50;;;-5.90;88.80;-6.60;97014.00;;;;5021774;28;83054;-59
2022/01/05 03:05:13;;;;;;;40.95;32.10;;;-5.90;88.70;-6.60;97020.00;;;;5021690;28;84052;-59
2022/01/05 03:07:39;;;;;;;40.65;30.90;;;-5.90;88.90;-6.60;97015.00;;;;5021553;28;82906;-60
2022/01/05 03:10:08;;;;;;;43.00;32.40;;;-5.90;88.90;-6.60;97027.00;;;;5021090;28;83683;-60
2022/01/05 03:12:34;;;;;;;42.70;31.65;;;-5.90;89.00;-6.60;97028.00;;;;5020940;28;83108;-61
2022/01/05 03:15:01;;;;;;;41.85;32.63;;;-5.90;89.00;-6.60;97029.00;;;;5020190;28;83399;-60
2022/01/05 03:17:27;;;;;;;44.15;32.42;;;-5.90;89.10;-6.60;97028.00;;;;5022067;28;83101;-58
2022/01/05 03:19:53;;;;;;;42.38;32.03;;;-5.90;89.20;-6.60;97007.00;;;;5020510;28;82649;-58
2022/01/05 03:22:19;;;;;;;42.25;32.17;;;-5.90;89.40;-6.60;97006.00;;;;5021433;28;82729;-58
2022/01/05 03:24:45;;;;;;;49.50;33.55;;;-5.80;89.50;-6.60;96999.00;;;;5021811;28;83395;-58
2022/01/05 03:27:11;;;;;;;43.25;32.83;;;-5.80;89.40;-6.60;96992.00;;;;5021759;28;82958;-56
2022/01/05 03:29:37;;;;;;;43.15;32.38;;;-5.90;89.40;-6.60;97001.00;;;;5022032;28;82958;-56
2022/01/05 03:32:04;;;;;;;49.40;33.03;;;-5.80;89.30;-6.60;96991.00;;;;5021425;28;83495;-59
2022/01/05 03:34:32;;;;;;;49.28;34.92;;;-5.80;89.10;-6.50;96998.00;;;;5023450;28;83574;-58
2022/01/05 03:37:00;;;;;;;48.30;34.40;;;-5.80;89.20;-6.50;96993.00;;;;5021226;28;83286;-57
2022/01/05 03:39:26;;;;;;;48.40;34.55;;;-5.80;89.10;-6.60;96990.00;;;;5021703;28;82844;-57
2022/01/05 03:41:52;;;;;;;50.15;34.83;;;-5.80;89.10;-6.60;96986.00;;;;5020540;28;82958;-57
2022/01/05 03:44:18;;;;;;;45.78;33.25;;;-5.80;89.20;-6.60;96968.00;;;;5022525;28;83204;-57
2022/01/05 03:46:44;;;;;;;47.63;35.05;;;-5.80;89.40;-6.60;96974.00;;;;5022161;28;83519;-57
2022/01/05 03:49:10;;;;;;;48.83;33.90;;;-5.80;89.40;-6.60;96985.00;;;;5022143;28;83113;-56
2022/01/05 03:51:37;;;;;;;48.58;35.15;;;-5.80;89.30;-6.60;96981.00;;;;5021856;28;83147;-57
2022/01/05 03:54:04;;;;;;;49.95;34.65;;;-5.80;89.30;-6.60;96986.00;;;;5021857;28;83992;-56
2022/01/05 03:56:30;;;;;;;46.47;34.92;;;-5.80;89.40;-6.60;96972.00;;;;5021884;28;83435;-60
2022/01/05 03:58:56;;;;;;;48.92;35.00;;;-5.80;89.40;-6.50;96971.00;;;;5025027;28;82814;-55
2022/01/05 04:01:22;;;;;;;48.33;32.28;;;-5.80;89.50;-6.50;96987.00;;;;5020894;28;84066;-58
2022/01/05 04:03:49;;;;;;;47.22;34.47;;;-5.80;89.50;-6.50;96983.00;;;;5021189;28;83246;-58
2022/01/05 04:06:15;;;;;;;46.33;33.80;;;-5.70;89.60;-6.50;96978.00;;;;5020854;28;83664;-57
2022/01/05 04:08:41;;;;;;;46.13;33.63;;;-5.70;89.60;-6.50;96990.00;;;;5019776;28;83087;-57
2022/01/05 04:11:07;;;;;;;47.92;34.50;;;-5.70;89.60;-6.50;96966.00;;;;5020388;28;82751;-55
2022/01/05 04:13:33;;;;;;;47.50;33.45;;;-5.80;89.40;-6.50;96963.00;;;;5020609;28;83364;-56
2022/01/05 04:15:59;;;;;;;45.55;33.00;;;-5.80;89.50;-6.50;96958.00;;;;5020973;28;83518;-58
2022/01/05 04:18:25;;;;;;;44.33;31.55;;;-5.70;89.60;-6.50;96963.00;;;;5020728;28;83002;-56
2022/01/05 04:20:51;;;;;;;45.15;31.50;;;-5.80;89.10;-6.60;96967.00;;;;5023980;28;82885;-57
2022/01/05 04:23:18;;;;;;;45.30;32.13;;;-5.80;89.20;-6.50;96959.00;;;;5024539;28;83360;-56
2022/01/05 04:25:44;;;;;;;43.00;32.22;;;-5.80;89.30;-6.50;96959.00;;;;5024703;28;83052;-56
2022/01/05 04:28:10;;;;;;;45.08;32.70;;;-5.80;89.20;-6.50;96954.00;;;;5023876;28;83084;-57
2022/01/05 04:30:36;;;;;;;43.53;31.25;;;-5.80;89.20;-6.50;96970.00;;;;5024018;28;83650;-55
2022/01/05 04:33:02;;;;;;;41.05;30.73;;;-5.80;89.20;-6.50;96967.00;;;;5026249;28;83290;-56
2022/01/05 04:35:29;;;;;;;40.92;31.05;;;-5.80;89.20;-6.50;96952.00;;;;5024094;28;82892;-58
2022/01/05 04:37:55;;;;;;;41.03;30.23;;;-5.80;89.10;-6.50;96965.00;;;;5022188;28;83408;-57
2022/01/05 04:40:21;;;;;;;45.20;31.13;;;-5.80;89.10;-6.50;96952.00;;;;5022820;28;82615;-58
2022/01/05 04:42:47;;;;;;;45.47;32.53;;;-5.80;88.90;-6.50;96959.00;;;;5022746;28;84208;-57
2022/01/05 04:45:13;;;;;;;38.90;30.70;;;-5.70;89.10;-6.50;96955.00;;;;5023823;28;83281;-57
2022/01/05 04:47:40;;;;;;;44.72;30.75;;;-5.80;88.80;-6.50;96938.00;;;;5023134;28;83043;-55
2022/01/05 04:50:07;;;;;;;43.28;29.45;;;-5.80;89.00;-6.50;96946.00;;;;5023828;28;82682;-56
2022/01/05 04:52:33;;;;;;;45.65;30.48;;;-5.80;89.20;-6.50;96933.00;;;;5023995;28;83355;-57
2022/01/05 04:54:59;;;;;;;42.28;30.85;;;-5.80;89.20;-6.50;96946.00;;;;5022773;28;84056;-59
2022/01/05 04:57:25;;;;;;;40.20;28.85;;;-5.80;89.10;-6.50;96943.00;;;;5023944;28;82988;-61
2022/01/05 04:59:51;;;;;;;40.40;29.33;;;-5.80;89.00;-6.50;96931.00;;;;5025336;28;83131;-61
2022/01/05 05:02:17;;;;;;;41.17;29.70;;;-5.80;89.10;-6.50;96935.00;;;;5023847;28;83310;-60
2022/01/05 05:04:43;;;;;;;38.38;29.27;;;-5.70;89.10;-6.50;96929.00;;;;5023872;28;82976;-60
2022/01/05 05:07:09;;;;;;;44.22;29.75;;;-5.70;89.10;-6.50;96923.00;;;;5024126;28;82764;-61
2022/01/05 05:09:35;;;;;;;43.97;30.90;;;-5.70;89.20;-6.40;96923.00;;;;5023419;28;83825;-62
2022/01/05 05:12:02;;;;;;;41.40;30.23;;;-5.70;89.10;-6.40;96918.00;;;;5021470;28;83893;-62
2022/01/05 05:14:28;;;;;;;41.20;29.17;;;-5.70;89.10;-6.40;96904.00;;;;5022254;28;85815;-61
2022/01/05 05:16:54;;;;;;;42.55;30.67;;;-5.70;89.00;-6.50;96893.00;;;;5023795;28;83162;-61
2022/01/05 05:19:20;;;;;;;39.88;29.85;;;-5.70;89.00;-6.50;96907.00;;;;5023581;28;83036;-62
2022/01/05 05:21:46;;;;;;;37.70;28.27;;;-5.70;89.20;-6.50;96901.00;;;;5023698;28;83800;-62
2022/01/05 05:24:15;;;;;;;40.67;29.77;;;-5.80;89.10;-6.50;96902.00;;;;5022936;28;82982;-62
2022/01/05 05:26:42;;;;;;;37.60;27.67;;;-5.70;89.20;-6.50;96897.00;;;;5023572;28;82622;-61
2022/01/05 05:29:08;;;;;;;36.80;29.23;;;-5.70;89.20;-6.50;96899.00;;;;5023943;28;83245;-62
2022/01/05 05:31:34;;;;;;;43.05;31.00;;;-5.70;89.10;-6.50;96886.00;;;;5023236;28;82640;-61
2022/01/05 05:34:01;;;;;;;40.38;30.38;;;-5.70;89.00;-6.50;96888.00;;;;5025955;28;82998;-61
2022/01/05 05:36:27;;;;;;;42.45;30.83;;;-5.80;89.00;-6.60;96880.00;;;;5023312;28;82514;-63
2022/01/05 05:38:53;;;;;;;41.65;31.25;;;-5.80;89.00;-6.70;96891.00;;;;5023493;28;84238;-61
2022/01/05 05:41:19;;;;;;;43.38;31.58;;;-5.90;89.00;-6.70;96885.00;;;;5023187;28;83329;-61
2022/01/05 05:43:47;;;;;;;41.47;31.98;;;-6.00;89.30;-6.70;96876.00;;;;5022145;28;83095;-61
2022/01/05 05:46:13;;;;;;;39.40;29.30;;;-6.00;89.30;-6.70;96871.00;;;;5022498;28;83898;-61
2022/01/05 05:48:39;;;;;;;44.35;30.55;;;-5.90;89.40;-6.70;96868.00;;;;5023437;28;82872;-61
2022/01/05 05:51:05;;;;;;;48.00;32.50;;;-6.00;89.00;-6.80;96871.00;;;;5022730;28;83359;-61
2022/01/05 05:53:31;;;;;;;41.42;30.90;;;-6.10;88.80;-6.90;96862.00;;;;5023340;28;83217;-61
2022/01/05 05:55:57;;;;;;;41.80;30.20;;;-6.10;88.80;-6.90;96856.00;;;;5023633;28;82580;-61
2022/01/05 05:58:23;;;;;;;39.92;29.35;;;-6.20;88.80;-6.90;96852.00;;;;5023064;28;83659;-61
2022/01/05 06:00:49;;;;;;;45.20;29.55;;;-6.20;89.00;-6.90;96857.00;;;;5022171;28;83827;-61
2022/01/05 06:03:17;;;;;;;38.75;29.50;;;-6.20;88.80;-6.90;96848.00;;;;5022356;28;83044;-61
2022/01/05 06:05:43;;;;;;;41.67;28.40;;;-6.20;88.70;-7.00;96845.00;;;;5022051;28;82881;-61
2022/01/05 06:08:09;;;;;;;39.20;28.95;;;-6.20;88.70;-6.90;96856.00;;;;5023274;28;82831;-61
2022/01/05 06:10:35;;;;;;;38.38;28.40;;;-6.20;88.90;-7.00;96851.00;;;;5021567;28;83487;-61
2022/01/05 06:13:01;;;;;;;35.40;26.10;;;-6.20;88.80;-7.00;96847.00;;;;5021580;28;83521;-62
2022/01/05 06:15:27;;;;;;;36.05;26.67;;;-6.20;88.90;-7.00;96849.00;;;;5022820;28;83018;-61
2022/01/05 06:17:54;;;;;;;34.63;26.25;;;-6.20;88.80;-6.90;96852.00;;;;5023037;28;83057;-61
2022/01/05 06:20:21;;;;;;;32.72;25.98;;;-6.20;88.80;-6.90;96861.00;;;;5021929;28;83114;-61
2022/01/05 06:22:47;;;;;;;34.95;26.83;;;-6.20;88.90;-6.90;96858.00;;;;5022568;28;83109;-62
2022/01/05 06:25:13;;;;;;;32.75;25.92;;;-6.20;88.70;-6.90;96852.00;;;;5023338;28;83403;-62
2022/01/05 06:27:40;;;;;;;38.05;27.05;;;-6.20;88.70;-6.90;96852.00;;;;5022709;28;82860;-62
2022/01/05 06:30:09;;;;;;;29.88;25.48;;;-6.10;88.80;-6.90;96851.00;;;;5021467;28;83463;-62
2022/01/05 06:32:41;;;;;;;31.98;26.45;;;-6.10;88.60;-6.90;96847.00;;;;5022842;28;83073;-62
2022/01/05 06:35:08;;;;;;;33.63;26.95;;;-6.10;88.50;-6.90;96854.00;;;;5024873;28;82930;-62
2022/01/05 06:37:34;;;;;;;33.35;25.40;;;-6.10;88.80;-6.80;96855.00;;;;5021906;28;83192;-62
2022/01/05 06:40:00;;;;;;;35.97;24.88;;;-6.10;88.60;-6.90;96842.00;;;;5022353;28;83509;-62
2022/01/05 06:42:26;;;;;;;31.13;24.80;;;-6.10;88.50;-6.80;96853.00;;;;5021806;28;83213;-62
2022/01/05 06:44:52;;;;;;;33.78;26.02;;;-6.10;88.70;-6.80;96849.00;;;;5021398;28;83626;-62
2022/01/05 06:47:19;;;;;;;30.67;24.65;;;-6.00;88.60;-6.80;96838.00;;;;5021231;28;84573;-62
2022/01/05 06:49:45;;;;;;;32.63;24.58;;;-6.00;88.50;-6.80;96834.00;;;;5021188;28;85250;-63
2022/01/05 06:52:14;;;;;;;33.08;25.55;;;-6.10;88.20;-6.80;96834.00;;;;5022463;28;83264;-61
2022/01/05 06:54:41;;;;;;;34.70;24.85;;;-6.10;88.40;-6.90;96821.00;;;;5022333;28;83255;-63
2022/01/05 06:57:09;;;;;;;31.35;25.52;;;-6.10;88.50;-6.90;96835.00;;;;5021945;28;83270;-61
2022/01/05 06:59:35;;;;;;;31.25;24.55;;;-6.10;88.70;-6.90;96828.00;;;;5020932;28;83334;-64
2022/01/05 07:02:03;;;;;;;31.70;25.83;;;-6.10;88.80;-6.90;96813.00;;;;5021645;28;84590;-62
2022/01/05 07:04:30;;;;;;;35.30;24.67;;;-6.10;88.60;-6.80;96809.00;;;;5022553;28;83671;-62
2022/01/05 07:06:56;;;;;;;33.17;25.35;;;-6.20;88.70;-6.90;96814.00;;;;5022241;28;83155;-61
2022/01/05 07:09:22;;;;;;;31.13;24.92;;;-6.10;88.80;-6.80;96811.00;;;;5022054;28;83862;-62
2022/01/05 07:11:48;;;;;;;32.95;26.02;;;-6.10;88.80;-6.80;96804.00;;;;5021707;28;83077;-62
2022/01/05 07:14:14;;;;;;;30.67;25.00;;;-6.10;89.20;-6.80;96815.00;;;;5021207;28;83161;-61
2022/01/05 07:16:40;;;;;;;32.83;25.95;;;-6.00;89.30;-6.70;96800.00;;;;5021452;28;82894;-61
2022/01/05 07:19:06;;;;;;;32.60;26.42;;;-6.00;89.00;-6.70;96806.00;;;;5021553;28;84717;-61
2022/01/05 07:21:33;;;;;;;38.63;26.50;;;-6.00;88.70;-6.80;96807.00;;;;5022488;28;83574;-64
2022/01/05 07:24:01;;;;;;;30.00;26.80;;;-6.00;88.50;-6.80;96810.00;;;;5023535;28;83093;-62
2022/01/05 07:26:27;;;;;;;35.53;26.98;;;-6.10;88.50;-6.80;96792.00;;;;5020084;28;83970;-62
2022/01/05 07:28:56;;;;;;;34.20;26.60;;;-6.10;88.70;-6.80;96785.00;;;;5022493;28;83859;-61
2022/01/05 07:31:22;;;;;;;35.05;27.48;;;-6.10;88.80;-6.90;96779.00;;;;5002284;28;83060;-63
2022/01/05 07:33:48;;;;;;;30.77;26.48;;;-6.20;88.90;-6.90;96787.00;;;;5014887;28;83029;-61
2022/01/05 07:36:14;;;;;;;33.78;26.60;;;-6.20;89.40;-6.90;96763.00;;;;5020304;28;84330;-61
2022/01/05 07:38:40;;;;;;;33.42;26.48;;;-6.20;89.40;-6.90;96771.00;;;;5021239;28;83841;-61
2022/01/05 07:41:06;;;;;;;33.85;28.05;;;-6.10;89.70;-6.90;96769.00;;;;5021593;28;83487;-61
2022/01/05 07:43:33;;;;;;;35.08;27.08;;;-6.10;89.60;-6.90;96741.00;;;;5021428;28;83262;-62
2022/01/05 07:45:59;;;;;;;35.45;29.52;;;-6.10;89.50;-6.90;96732.00;;;;5021515;28;83087;-62
2022/01/05 07:48:25;;;;;;;38.75;29.15;;;-6.20;89.60;-6.90;96732.00;;;;5022138;28;83170;-62
2022/01/05 07:50:51;;;;;;;35.67;28.35;;;-6.10;89.80;-6.90;96729.00;;;;5021718;28;82778;-62
2022/01/05 07:53:18;;;;;;;34.60;28.67;;;-6.10;89.80;-6.80;96731.00;;;;5022145;28;82568;-62
2022/01/05 07:55:44;;;;;;;35.55;27.95;;;-6.10;90.00;-6.80;96725.00;;;;5023737;28;84018;-61
2022/01/05 07:58:11;;;;;;;38.25;30.42;;;-6.10;89.80;-6.80;96710.00;;;;5027241;28;83514;-62
2022/01/05 08:00:37;;;;;;;38.08;28.55;;;-6.00;89.50;-6.80;96720.00;;;;5028320;28;83131;-62
2022/01/05 08:03:03;;;;;;;37.08;28.95;;;-6.10;89.20;-6.80;96716.00;;;;5023325;28;83528;-63
2022/01/05 08:05:29;;;;;;;35.03;28.52;;;-6.10;89.50;-6.80;96713.00;;;;5025478;28;82626;-62
2022/01/05 08:07:55;;;;;;;38.50;29.45;;;-6.10;89.60;-6.80;96697.00;;;;5024867;28;83940;-62
2022/01/05 08:10:21;;;;;;;36.75;27.30;;;-6.10;89.60;-6.80;96706.00;;;;5024517;28;82600;-62
2022/01/05 08:12:48;;;;;;;36.55;28.48;;;-6.10;89.40;-6.80;96685.00;;;;5023700;28;83044;-62
2022/01/05 08:15:15;;;;;;;35.72;27.77;;;-6.10;89.60;-6.80;96682.00;;;;5024539;28;83140;-62
2022/01/05 08:17:43;;;;;;;34.00;28.40;;;-6.00;89.80;-6.80;96677.00;;;;5025206;28;83402;-61
2022/01/05 08:20:13;;;;;;;37.17;28.08;;;-6.00;89.80;-6.70;96659.00;;;;5024587;28;83027;-61
2022/01/05 08:22:44;;;;;;;37.05;27.90;;;-6.00;89.50;-6.70;96645.00;;;;5022992;28;83682;-61
2022/01/05 08:25:15;;;;;;;35.15;27.90;;;-6.00;89.40;-6.70;96636.00;;;;5026214;28;83669;-62
2022/01/05 08:27:46;;;;;;;36.88;28.63;;;-6.00;90.00;-6.70;96652.00;;;;5007230;28;86087;-62
2022/01/05 08:30:19;;;;;;;36.38;26.95;;;-5.90;89.70;-6.70;96650.00;;;;5024579;28;83043;-64
2022/01/05 08:32:47;;;;;;;35.58;27.60;;;-5.90;89.60;-6.60;96626.00;;;;5026688;28;82776;-62
2022/01/05 08:35:18;;;;;;;33.53;25.75;;;-5.90;89.40;-6.60;96633.00;;;;5024831;28;82834;-63
2022/01/05 08:37:46;;;;;;;34.42;26.90;;;-5.90;89.60;-6.70;96615.00;;;;5022783;28;83400;-63
2022/01/05 08:40:18;;;;;;;30.38;25.95;;;-5.90;89.40;-6.70;96612.00;;;;5024310;28;83078;-62
2022/01/05 08:42:45;;;;;;;30.25;25.33;;;-5.90;89.40;-6.70;96612.00;;;;5025003;28;82842;-61
2022/01/05 08:45:12;;;;;;;31.55;24.45;;;-6.00;89.30;-6.70;96608.00;;;;5023668;28;83367;-61
2022/01/05 08:47:38;;;;;;;30.42;24.85;;;-6.00;89.40;-6.70;96597.00;;;;5023514;28;84623;-63
2022/01/05 08:50:05;;;;;;;29.85;23.30;;;-6.00;89.70;-6.70;96594.00;;;;5024465;28;83547;-63
2022/01/05 08:52:31;;;;;;;27.67;23.05;;;-6.00;89.60;-6.70;96582.00;;;;5022967;28;83048;-62
2022/01/05 08:54:58;;;;;;;27.77;22.73;;;-6.00;89.60;-6.70;96589.00;;;;5024578;28;83041;-65
2022/01/05 08:57:24;;;;;;;24.30;20.88;;;-5.90;89.80;-6.70;96585.00;;;;5024125;28;82963;-62
2022/01/05 08:59:51;;;;;;;24.23;21.00;;;-5.90;89.60;-6.70;96566.00;;;;5024139;28;83542;-62
2022/01/05 09:02:18;;;;;;;26.88;20.27;;;-5.90;89.60;-6.70;96560.00;;;;5024345;28;82615;-62
2022/01/05 09:04:45;;;;;;;26.10;20.55;;;-6.00;89.20;-6.70;96562.00;;;;5023480;28;84004;-62
2022/01/05 09:07:11;;;;;;;24.83;19.42;;;-5.90;89.80;-6.60;96556.00;;;;5024104;28;83503;-62
2022/01/05 09:09:37;;;;;;;24.58;18.58;;;-5.90;89.50;-6.60;96553.00;;;;5024388;28;83244;-63
2022/01/05 09:12:04;;;;;;;21.75;19.23;;;-5.80;89.40;-6.60;96532.00;;;;5023105;28;82675;-62
2022/01/05 09:14:30;;;;;;;21.92;18.25;;;-5.80;89.30;-6.50;96530.00;;;;5023108;28;83440;-62
2022/01/05 09:16:58;;;;;;;20.08;17.92;;;-5.80;89.20;-6.50;96522.00;;;;5023472;28;83557;-62
2022/01/05 09:19:25;;;;;;;22.30;18.73;;;-5.80;89.10;-6.50;96522.00;;;;5023599;28;82635;-62
2022/01/05 09:21:51;;;;;;;21.20;16.73;;;-5.80;89.20;-6.50;96516.00;;;;5024307;28;82918;-62
2022/01/05 09:24:17;;;;;;;21.50;17.33;;;-5.80;89.30;-6.50;96493.00;;;;5019991;28;83127;-62
2022/01/05 09:26:43;;;;;;;21.92;17.25;;;-5.70;89.30;-6.40;96496.00;;;;5008197;28;83808;-62
2022/01/05 09:29:09;;;;;;;20.40;16.35;;;-5.70;89.10;-6.40;96491.00;;;;5024104;28;83510;-62
2022/01/05 09:31:35;;;;;;;22.10;16.98;;;-5.70;88.90;-6.40;96470.00;;;;5023779;28;83217;-62
2022/01/05 09:34:02;;;;;;;21.58;16.63;;;-5.70;89.00;-6.50;96456.00;;;;5023315;28;82618;-62
2022/01/05 09:36:40;;;;;;;20.63;16.38;;;-5.70;89.20;-6.40;96468.00;;;;5022756;28;83243;-62
2022/01/05 09:41:57;;;;;;;22.08;16.65;;;-5.70;89.10;-6.50;96457.00;;;;5018624;28;83161;-62
2022/01/05 09:44:34;;;;;;;20.60;15.90;;;-5.70;89.30;-6.40;96434.00;;;;5023515;28;82406;-62
2022/01/05 09:47:38;;;;;;;24.58;16.23;;;-5.70;89.40;-6.50;96420.00;;;;5024081;28;82697;-62
2022/01/05 09:50:11;;;;;;;20.25;15.90;;;-5.70;89.40;-6.40;96416.00;;;;5013308;28;83049;-62
2022/01/05 09:52:43;;;;;;;25.67;15.68;;;-5.70;89.60;-6.40;96391.00;;;;5022350;28;83452;-62
2022/01/05 09:55:11;;;;;;;19.40;15.55;;;-5.70;89.70;-6.40;96381.00;;;;5023271;28;83051;-61
2022/01/05 09:57:41;;;;;;;27.23;16.77;;;-5.60;89.90;-6.30;96387.00;;;;5024137;28;83372;-62
2022/01/05 10:00:09;;;;;;;20.77;16.17;;;-5.60;90.00;-6.30;96370.00;;;;5023638;28;83011;-62
2022/01/05 10:02:40;;;;;;;;;;;-5.60;90.00;-6.30;96373.00;;;;5023942;28;82783;-63
2022/01/05 10:05:15;;;;;;;21.88;16.77;;;-5.50;90.20;-6.20;96370.00;;;;5024064;28;84594;-64
2022/01/05 10:07:42;;;;;;;24.45;18.45;;;-5.50;90.30;-6.20;96354.00;;;;5022573;28;83778;-61
2022/01/05 10:10:10;;;;;;;25.38;18.77;;;-5.40;90.30;-6.20;96347.00;;;;5023411;28;82990;-61
2022/01/05 10:12:36;;;;;;;23.17;19.08;;;-5.50;90.20;-6.20;96353.00;;;;5021838;28;82803;-61
2022/01/05 10:15:04;;;;;;;23.90;18.92;;;-5.50;90.30;-6.10;96346.00;;;;5022269;28;82637;-62
2022/01/05 10:17:33;;;;;;;29.15;20.90;;;-5.40;90.30;-6.10;96344.00;;;;5022065;28;83312;-62
2022/01/05 10:20:09;;;;;;;26.60;20.42;;;-5.40;90.30;-6.10;96340.00;;;;5022191;28;82926;-62
2022/01/05 10:22:44;;;;;;;23.08;18.75;;;-5.40;90.30;-6.10;96333.00;;;;5022605;28;82791;-61
2022/01/05 10:25:24;;;;;;;24.25;19.75;;;-5.40;90.30;-6.10;96331.00;;;;5022343;28;82713;-62
2022/01/05 10:28:03;;;;;;;24.23;20.35;;;-5.40;90.30;-6.00;96331.00;;;;5023127;28;83899;-61
2022/01/05 10:30:40;;;;;;;22.80;19.83;;;-5.30;90.30;-6.00;96327.00;;;;5022619;28;83099;-62
2022/01/05 10:33:08;;;;;;;22.67;19.02;;;-5.30;90.30;-6.00;96310.00;;;;5022711;28;82948;-62
2022/01/05 10:35:35;;;;;;;22.52;19.33;;;-5.30;90.20;-6.00;96312.00;;;;5022157;28;83074;-63
2022/01/05 10:38:09;;;;;;;21.83;17.98;;;-5.30;90.20;-6.00;96308.00;;;;5023093;28;83579;-63
2022/01/05 10:40:38;;;;;;;21.08;18.48;;;-5.30;90.10;-6.10;96291.00;;;;5022604;28;83242;-61
2022/01/05 10:43:13;;;;;;;20.67;17.52;;;-5.40;89.90;-6.20;96290.00;;;;5022833;28;82784;-61